sensor_id;sensor_type;location;lat;lon;timestamp;temperature;humidity
26037;DHT22;13810;48.376;10.944;2023-05-21T05:57:00;15.40;99.90
26037;DHT22;13810;48.376;10.944;2023-05-21T05:57:31;15.40;99.90
26037;DHT22;13810;48.376;10.944;2023-05-21T05:58:01;15.50;99.90
26037;DHT22;13810;48.376;10.944;2023-05-21T05:58:32;15.50;99.90
26037;DHT22;13810;48.376;10.944;2023-05-21T05:59:02;15.50;99.90
26037;DHT22;13810;48.376;10.944;2023-05-21T05:59:33;15.50;99.90
26037;DHT22;13810;48.376;10.944;2023-05-21T06:00:04;15.50;99.90
26037;DHT22;13810;48.376;10.944;2023-05-21T06:00:35;15.50;99.90
26037;DHT22;13810;48.376;10.944;2023-05-21T06:01:06;15.50;99.90
26037;DHT22;13810;48.376;10.944;2023-05-21T06:01:36;15.50;99.90
26037;DHT22;13810;48.376;10.944;2023-05-21T06:02:07;15.60;99.90
26037;DHT22;13810;48.376;10.944;2023-05-21T06:02:38;15.60;99.90
26037;DHT22;13810;48.376;10.944;2023-05-21T06:03:09;15.60;99.90
26037;DHT22;13810;48.376;10.944;2023-05-21T06:03:41;15.60;99.90
26037;DHT22;13810;48.376;10.944;2023-05-21T06:04:12;15.60;99.90
26037;DHT22;13810;48.376;10.944;2023-05-21T06:04:42;15.60;99.90
26037;DHT22;13810;48.376;10.944;2023-05-21T06:05:13;15.60;99.90
26037;DHT22;13810;48.376;10.944;2023-05-21T06:05:44;15.60;99.90
26037;DHT22;13810;48.376;10.944;2023-05-21T06:06:15;15.60;99.90
26037;DHT22;13810;48.376;10.944;2023-05-21T06:06:46;15.60;99.90
26037;DHT22;13810;48.376;10.944;2023-05-21T06:07:17;15.60;99.90
26037;DHT22;13810;48.376;10.944;2023-05-21T06:07:48;15.70;99.90
26037;DHT22;13810;48.376;10.944;2023-05-21T06:08:18;15.60;99.90
26037;DHT22;13810;48.376;10.944;2023-05-21T06:08:49;15.70;99.90
26037;DHT22;13810;48.376;10.944;2023-05-21T06:09:20;15.70;99.90
26037;DHT22;13810;48.376;10.944;2023-05-21T06:09:51;15.80;99.90
26037;DHT22;13810;48.376;10.944;2023-05-21T06:10:22;15.80;99.90
26037;DHT22;13810;48.376;10.944;2023-05-21T06:10:52;15.80;99.90
26037;DHT22;13810;48.376;10.944;2023-05-21T06:11:23;15.80;99.90
26037;DHT22;13810;48.376;10.944;2023-05-21T06:11:55;15.80;99.90
26037;DHT22;13810;48.376;10.944;2023-05-21T06:12:25;15.80;99.90
26037;DHT22;13810;48.376;10.944;2023-05-21T06:12:56;15.90;99.90
26037;DHT22;13810;48.376;10.944;2023-05-21T06:13:26;15.90;99.90
26037;DHT22;13810;48.376;10.944;2023-05-21T06:13:57;15.90;99.90
26037;DHT22;13810;48.376;10.944;2023-05-21T06:14:30;15.90;99.90
26037;DHT22;13810;48.376;10.944;2023-05-21T06:15:01;15.90;99.90
26037;DHT22;13810;48.376;10.944;2023-05-21T06:15:32;16.00;99.90
26037;DHT22;13810;48.376;10.944;2023-05-21T06:16:03;16.00;99.90
26037;DHT22;13810;48.376;10.944;2023-05-21T06:16:34;16.00;99.90
26037;DHT22;13810;48.376;10.944;2023-05-21T06:17:06;16.00;99.90
26037;DHT22;13810;48.376;10.944;2023-05-21T06:17:37;16.10;99.90
26037;DHT22;13810;48.376;10.944;2023-05-21T06:18:08;16.20;99.90
26037;DHT22;13810;48.376;10.944;2023-05-21T06:18:38;16.10;99.90
26037;DHT22;13810;48.376;10.944;2023-05-21T06:19:09;16.20;99.90
26037;DHT22;13810;48.376;10.944;2023-05-21T06:19:39;16.20;99.90
26037;DHT22;13810;48.376;10.944;2023-05-21T06:20:10;16.20;99.90
26037;DHT22;13810;48.376;10.944;2023-05-21T06:20:41;16.20;99.90
26037;DHT22;13810;48.376;10.944;2023-05-21T06:21:12;16.30;99.90
26037;DHT22;13810;48.376;10.944;2023-05-21T06:21:42;16.20;99.90
26037;DHT22;13810;48.376;10.944;2023-05-21T06:22:13;16.30;99.90
26037;DHT22;13810;48.376;10.944;2023-05-21T06:22:44;16.30;99.90
26037;DHT22;13810;48.376;10.944;2023-05-21T06:23:14;16.40;99.90
26037;DHT22;13810;48.376;10.944;2023-05-21T06:23:45;16.40;99.90
26037;DHT22;13810;48.376;10.944;2023-05-21T06:24:16;16.40;99.90
26037;DHT22;13810;48.376;10.944;2023-05-21T06:24:47;16.40;99.90
26037;DHT22;13810;48.376;10.944;2023-05-21T06:25:17;16.40;99.90
26037;DHT22;13810;48.376;10.944;2023-05-21T06:25:48;16.40;99.90
26037;DHT22;13810;48.376;10.944;2023-05-21T06:26:19;16.40;99.90
26037;DHT22;13810;48.376;10.944;2023-05-21T06:26:49;16.40;99.90
26037;DHT22;13810;48.376;10.944;2023-05-21T06:27:20;16.50;99.90
26037;DHT22;13810;48.376;10.944;2023-05-21T06:27:51;16.60;99.90
26037;DHT22;13810;48.376;10.944;2023-05-21T06:28:22;16.60;99.90
26037;DHT22;13810;48.376;10.944;2023-05-21T06:28:52;16.60;99.90
26037;DHT22;13810;48.376;10.944;2023-05-21T06:29:23;16.70;99.90
26037;DHT22;13810;48.376;10.944;2023-05-21T06:29:53;16.70;99.90
26037;DHT22;13810;48.376;10.944;2023-05-21T06:30:24;16.70;99.90
26037;DHT22;13810;48.376;10.944;2023-05-21T06:30:55;16.70;99.90
26037;DHT22;13810;48.376;10.944;2023-05-21T06:31:25;16.80;99.90
26037;DHT22;13810;48.376;10.944;2023-05-21T06:31:56;16.80;99.90
26037;DHT22;13810;48.376;10.944;2023-05-21T06:32:26;16.80;99.90
26037;DHT22;13810;48.376;10.944;2023-05-21T06:32:57;16.90;99.90
26037;DHT22;13810;48.376;10.944;2023-05-21T06:33:28;16.80;99.90
26037;DHT22;13810;48.376;10.944;2023-05-21T06:33:59;16.90;99.90
26037;DHT22;13810;48.376;10.944;2023-05-21T06:34:30;16.90;99.90
26037;DHT22;13810;48.376;10.944;2023-05-21T06:35:00;17.00;99.90
26037;DHT22;13810;48.376;10.944;2023-05-21T06:35:31;17.00;99.90
26037;DHT22;13810;48.376;10.944;2023-05-21T06:36:04;17.10;99.90
26037;DHT22;13810;48.376;10.944;2023-05-21T06:36:34;17.10;99.90
26037;DHT22;13810;48.376;10.944;2023-05-21T06:37:05;17.20;99.90
26037;DHT22;13810;48.376;10.944;2023-05-21T06:37:36;17.20;99.90
26037;DHT22;13810;48.376;10.944;2023-05-21T06:38:07;17.20;99.90
26037;DHT22;13810;48.376;10.944;2023-05-21T06:38:37;17.20;99.90
26037;DHT22;13810;48.376;10.944;2023-05-21T06:39:08;17.20;99.90
26037;DHT22;13810;48.376;10.944;2023-05-21T06:39:39;17.20;99.90
26037;DHT22;13810;48.376;10.944;2023-05-21T06:40:10;17.20;99.90
26037;DHT22;13810;48.376;10.944;2023-05-21T06:40:41;17.20;99.90
26037;DHT22;13810;48.376;10.944;2023-05-21T06:41:13;17.30;99.90
26037;DHT22;13810;48.376;10.944;2023-05-21T06:41:44;17.30;99.90
26037;DHT22;13810;48.376;10.944;2023-05-21T06:42:15;17.40;99.90
26037;DHT22;13810;48.376;10.944;2023-05-21T06:42:45;17.40;99.90
26037;DHT22;13810;48.376;10.944;2023-05-21T06:43:16;17.40;99.90
26037;DHT22;13810;48.376;10.944;2023-05-21T06:43:47;17.50;99.90
26037;DHT22;13810;48.376;10.944;2023-05-21T06:44:17;17.50;99.90
26037;DHT22;13810;48.376;10.944;2023-05-21T06:44:48;17.70;99.90
26037;DHT22;13810;48.376;10.944;2023-05-21T06:45:19;17.70;99.90
26037;DHT22;13810;48.376;10.944;2023-05-21T06:45:49;17.80;99.90
26037;DHT22;13810;48.376;10.944;2023-05-21T06:46:20;17.80;99.90
26037;DHT22;13810;48.376;10.944;2023-05-21T06:46:51;17.90;99.90
26037;DHT22;13810;48.376;10.944;2023-05-21T06:47:21;18.00;99.90
26037;DHT22;13810;48.376;10.944;2023-05-21T06:47:52;18.10;99.90
26037;DHT22;13810;48.376;10.944;2023-05-21T06:48:23;18.20;99.90
26037;DHT22;13810;48.376;10.944;2023-05-21T06:48:53;18.20;99.90
26037;DHT22;13810;48.376;10.944;2023-05-21T06:49:24;18.20;99.90
26037;DHT22;13810;48.376;10.944;2023-05-21T06:49:55;18.20;99.90
26037;DHT22;13810;48.376;10.944;2023-05-21T06:50:26;18.30;99.90
26037;DHT22;13810;48.376;10.944;2023-05-21T06:50:57;18.40;99.90
26037;DHT22;13810;48.376;10.944;2023-05-21T06:51:27;18.40;99.90
26037;DHT22;13810;48.376;10.944;2023-05-21T06:51:58;18.40;99.90
26037;DHT22;13810;48.376;10.944;2023-05-21T06:52:29;18.40;99.90
26037;DHT22;13810;48.376;10.944;2023-05-21T06:53:01;18.40;99.90
26037;DHT22;13810;48.376;10.944;2023-05-21T06:53:31;18.50;99.90
26037;DHT22;13810;48.376;10.944;2023-05-21T06:54:03;18.50;99.90
26037;DHT22;13810;48.376;10.944;2023-05-21T06:54:34;18.60;99.90
26037;DHT22;13810;48.376;10.944;2023-05-21T06:55:05;18.60;99.90
26037;DHT22;13810;48.376;10.944;2023-05-21T06:55:36;18.70;99.90
26037;DHT22;13810;48.376;10.944;2023-05-21T06:56:07;18.80;99.90
26037;DHT22;13810;48.376;10.944;2023-05-21T06:56:37;18.80;99.90
26037;DHT22;13810;48.376;10.944;2023-05-21T06:57:08;18.80;99.90
26037;DHT22;13810;48.376;10.944;2023-05-21T06:57:38;18.80;99.90
26037;DHT22;13810;48.376;10.944;2023-05-21T06:58:10;18.80;99.90
26037;DHT22;13810;48.376;10.944;2023-05-21T06:58:40;18.90;99.90
26037;DHT22;13810;48.376;10.944;2023-05-21T06:59:11;19.00;99.90
26037;DHT22;13810;48.376;10.944;2023-05-21T06:59:42;19.10;99.90
26037;DHT22;13810;48.376;10.944;2023-05-21T07:00:13;19.20;99.90
26037;DHT22;13810;48.376;10.944;2023-05-21T07:00:44;19.20;99.90
26037;DHT22;13810;48.376;10.944;2023-05-21T07:01:15;19.20;99.90
26037;DHT22;13810;48.376;10.944;2023-05-21T07:01:45;19.30;99.90
26037;DHT22;13810;48.376;10.944;2023-05-21T07:02:16;19.30;99.90
26037;DHT22;13810;48.376;10.944;2023-05-21T07:02:46;19.40;99.90
26037;DHT22;13810;48.376;10.944;2023-05-21T07:03:17;19.50;99.90
26037;DHT22;13810;48.376;10.944;2023-05-21T07:03:48;19.50;99.90
26037;DHT22;13810;48.376;10.944;2023-05-21T07:04:19;19.50;99.90
26037;DHT22;13810;48.376;10.944;2023-05-21T07:04:49;19.60;99.90
26037;DHT22;13810;48.376;10.944;2023-05-21T07:05:21;19.60;99.90
26037;DHT22;13810;48.376;10.944;2023-05-21T07:05:52;19.60;99.90
26037;DHT22;13810;48.376;10.944;2023-05-21T07:06:23;19.60;99.90
26037;DHT22;13810;48.376;10.944;2023-05-21T07:06:53;19.60;99.90
26037;DHT22;13810;48.376;10.944;2023-05-21T07:07:24;19.70;99.90
26037;DHT22;13810;48.376;10.944;2023-05-21T07:07:55;19.80;99.90
26037;DHT22;13810;48.376;10.944;2023-05-21T07:08:25;19.80;99.90
26037;DHT22;13810;48.376;10.944;2023-05-21T07:08:56;19.90;99.90
26037;DHT22;13810;48.376;10.944;2023-05-21T07:09:27;19.90;99.90
26037;DHT22;13810;48.376;10.944;2023-05-21T07:09:57;19.90;99.90
26037;DHT22;13810;48.376;10.944;2023-05-21T07:10:28;20.00;99.90
26037;DHT22;13810;48.376;10.944;2023-05-21T07:10:59;19.90;99.90
26037;DHT22;13810;48.376;10.944;2023-05-21T07:11:29;19.90;99.90
26037;DHT22;13810;48.376;10.944;2023-05-21T07:12:00;19.90;99.90
26037;DHT22;13810;48.376;10.944;2023-05-21T07:12:31;19.90;99.90
26037;DHT22;13810;48.376;10.944;2023-05-21T07:13:02;19.90;99.90
26037;DHT22;13810;48.376;10.944;2023-05-21T07:13:34;19.90;99.90
26037;DHT22;13810;48.376;10.944;2023-05-21T07:14:05;20.00;99.90
26037;DHT22;13810;48.376;10.944;2023-05-21T07:14:35;19.90;99.90
26037;DHT22;13810;48.376;10.944;2023-05-21T07:15:06;19.90;99.90
26037;DHT22;13810;48.376;10.944;2023-05-21T07:15:38;20.00;99.90
26037;DHT22;13810;48.376;10.944;2023-05-21T07:16:08;20.00;99.90
26037;DHT22;13810;48.376;10.944;2023-05-21T07:16:39;20.10;99.90
26037;DHT22;13810;48.376;10.944;2023-05-21T07:17:10;20.10;99.90
26037;DHT22;13810;48.376;10.944;2023-05-21T07:17:40;20.00;99.90
26037;DHT22;13810;48.376;10.944;2023-05-21T07:18:11;20.00;99.90
26037;DHT22;13810;48.376;10.944;2023-05-21T07:18:42;20.00;99.90
26037;DHT22;13810;48.376;10.944;2023-05-21T07:19:14;20.00;99.90
26037;DHT22;13810;48.376;10.944;2023-05-21T07:19:45;20.00;99.90
26037;DHT22;13810;48.376;10.944;2023-05-21T07:20:15;20.00;99.90
26037;DHT22;13810;48.376;10.944;2023-05-21T07:20:46;20.10;99.90
26037;DHT22;13810;48.376;10.944;2023-05-21T07:21:16;20.10;99.90
26037;DHT22;13810;48.376;10.944;2023-05-21T07:21:48;20.20;99.90
26037;DHT22;13810;48.376;10.944;2023-05-21T07:22:19;20.20;99.90
26037;DHT22;13810;48.376;10.944;2023-05-21T07:22:49;20.20;99.90
26037;DHT22;13810;48.376;10.944;2023-05-21T07:23:23;20.20;99.90
26037;DHT22;13810;48.376;10.944;2023-05-21T07:23:53;20.20;99.90
26037;DHT22;13810;48.376;10.944;2023-05-21T07:24:24;20.20;99.90
26037;DHT22;13810;48.376;10.944;2023-05-21T07:24:56;20.20;99.90
26037;DHT22;13810;48.376;10.944;2023-05-21T07:25:27;20.10;99.90
26037;DHT22;13810;48.376;10.944;2023-05-21T07:25:58;20.10;99.90
26037;DHT22;13810;48.376;10.944;2023-05-21T07:26:28;20.00;99.90
26037;DHT22;13810;48.376;10.944;2023-05-21T07:26:59;20.00;99.90
26037;DHT22;13810;48.376;10.944;2023-05-21T07:27:30;20.10;99.90
26037;DHT22;13810;48.376;10.944;2023-05-21T07:28:01;20.00;99.90
26037;DHT22;13810;48.376;10.944;2023-05-21T07:28:31;20.00;99.90
26037;DHT22;13810;48.376;10.944;2023-05-21T07:29:02;20.10;99.90
26037;DHT22;13810;48.376;10.944;2023-05-21T07:29:33;20.10;99.90
26037;DHT22;13810;48.376;10.944;2023-05-21T07:30:04;20.20;99.90
26037;DHT22;13810;48.376;10.944;2023-05-21T07:30:35;20.20;99.90
26037;DHT22;13810;48.376;10.944;2023-05-21T07:31:05;20.20;99.90
26037;DHT22;13810;48.376;10.944;2023-05-21T07:31:37;20.30;99.90
26037;DHT22;13810;48.376;10.944;2023-05-21T07:32:08;20.20;99.90
26037;DHT22;13810;48.376;10.944;2023-05-21T07:32:38;20.20;99.90
26037;DHT22;13810;48.376;10.944;2023-05-21T07:33:09;20.30;99.90
26037;DHT22;13810;48.376;10.944;2023-05-21T07:33:42;20.20;99.90
26037;DHT22;13810;48.376;10.944;2023-05-21T07:34:12;20.20;99.90
26037;DHT22;13810;48.376;10.944;2023-05-21T07:34:43;20.30;99.90
26037;DHT22;13810;48.376;10.944;2023-05-21T07:35:13;20.30;99.90
26037;DHT22;13810;48.376;10.944;2023-05-21T07:35:44;20.20;99.90
26037;DHT22;13810;48.376;10.944;2023-05-21T07:36:15;20.30;99.90
26037;DHT22;13810;48.376;10.944;2023-05-21T07:36:45;20.30;99.90
26037;DHT22;13810;48.376;10.944;2023-05-21T07:37:16;20.30;99.90
26037;DHT22;13810;48.376;10.944;2023-05-21T07:37:48;20.20;99.90
26037;DHT22;13810;48.376;10.944;2023-05-21T07:38:18;20.20;99.90
26037;DHT22;13810;48.376;10.944;2023-05-21T07:38:49;20.20;99.90
26037;DHT22;13810;48.376;10.944;2023-05-21T07:39:20;20.30;99.90
26037;DHT22;13810;48.376;10.944;2023-05-21T07:39:51;20.20;99.90
26037;DHT22;13810;48.376;10.944;2023-05-21T07:40:21;20.20;99.90
26037;DHT22;13810;48.376;10.944;2023-05-21T07:40:52;20.30;99.90
26037;DHT22;13810;48.376;10.944;2023-05-21T07:41:23;20.20;99.90
26037;DHT22;13810;48.376;10.944;2023-05-21T07:41:53;20.20;99.90
26037;DHT22;13810;48.376;10.944;2023-05-21T07:42:25;20.20;99.90
26037;DHT22;13810;48.376;10.944;2023-05-21T07:42:55;20.30;99.90
26037;DHT22;13810;48.376;10.944;2023-05-21T07:43:26;20.30;99.90
26037;DHT22;13810;48.376;10.944;2023-05-21T07:43:57;20.20;99.90
26037;DHT22;13810;48.376;10.944;2023-05-21T07:44:27;20.20;99.90
26037;DHT22;13810;48.376;10.944;2023-05-21T07:44:58;20.20;99.90
26037;DHT22;13810;48.376;10.944;2023-05-21T07:45:29;20.20;99.90
26037;DHT22;13810;48.376;10.944;2023-05-21T07:45:59;20.20;99.90
26037;DHT22;13810;48.376;10.944;2023-05-21T07:46:30;20.20;99.90
26037;DHT22;13810;48.376;10.944;2023-05-21T07:47:00;20.30;99.90
26037;DHT22;13810;48.376;10.944;2023-05-21T07:47:31;20.30;99.90
26037;DHT22;13810;48.376;10.944;2023-05-21T07:48:02;20.30;99.90
26037;DHT22;13810;48.376;10.944;2023-05-21T07:48:33;20.30;99.90
26037;DHT22;13810;48.376;10.944;2023-05-21T07:49:03;20.40;99.90
26037;DHT22;13810;48.376;10.944;2023-05-21T07:49:34;20.40;99.90
26037;DHT22;13810;48.376;10.944;2023-05-21T07:50:05;20.50;99.90
26037;DHT22;13810;48.376;10.944;2023-05-21T07:50:35;20.40;99.90
26037;DHT22;13810;48.376;10.944;2023-05-21T07:51:07;20.40;99.90
26037;DHT22;13810;48.376;10.944;2023-05-21T07:51:37;20.40;99.90
26037;DHT22;13810;48.376;10.944;2023-05-21T07:52:08;20.50;99.90
26037;DHT22;13810;48.376;10.944;2023-05-21T07:52:39;20.50;99.90
26037;DHT22;13810;48.376;10.944;2023-05-21T07:53:09;20.50;99.90
26037;DHT22;13810;48.376;10.944;2023-05-21T07:53:40;20.50;99.90
26037;DHT22;13810;48.376;10.944;2023-05-21T07:54:11;20.50;99.90
26037;DHT22;13810;48.376;10.944;2023-05-21T07:54:41;20.50;99.90
26037;DHT22;13810;48.376;10.944;2023-05-21T07:55:12;20.50;99.90
26037;DHT22;13810;48.376;10.944;2023-05-21T07:55:43;20.60;99.90
26037;DHT22;13810;48.376;10.944;2023-05-21T07:56:17;20.60;99.90
26037;DHT22;13810;48.376;10.944;2023-05-21T07:56:47;20.70;99.90
26037;DHT22;13810;48.376;10.944;2023-05-21T07:57:18;20.80;99.90
26037;DHT22;13810;48.376;10.944;2023-05-21T07:57:49;20.80;99.90
26037;DHT22;13810;48.376;10.944;2023-05-21T07:58:21;20.80;99.90
26037;DHT22;13810;48.376;10.944;2023-05-21T07:58:52;20.80;99.90
26037;DHT22;13810;48.376;10.944;2023-05-21T07:59:24;20.90;99.90
26037;DHT22;13810;48.376;10.944;2023-05-21T07:59:54;20.80;99.90
26037;DHT22;13810;48.376;10.944;2023-05-21T08:00:26;20.80;99.90
26037;DHT22;13810;48.376;10.944;2023-05-21T08:00:56;20.80;99.90
26037;DHT22;13810;48.376;10.944;2023-05-21T08:01:27;20.80;99.90
26037;DHT22;13810;48.376;10.944;2023-05-21T08:01:59;20.90;99.90
26037;DHT22;13810;48.376;10.944;2023-05-21T08:02:29;21.00;99.90
26037;DHT22;13810;48.376;10.944;2023-05-21T08:03:00;21.10;99.90
26037;DHT22;13810;48.376;10.944;2023-05-21T08:03:31;21.10;99.90
26037;DHT22;13810;48.376;10.944;2023-05-21T08:04:03;21.10;99.90
26037;DHT22;13810;48.376;10.944;2023-05-21T08:04:35;21.10;99.90
26037;DHT22;13810;48.376;10.944;2023-05-21T08:05:07;21.10;99.90
26037;DHT22;13810;48.376;10.944;2023-05-21T08:05:39;21.10;99.90
26037;DHT22;13810;48.376;10.944;2023-05-21T08:06:10;21.10;99.90
26037;DHT22;13810;48.376;10.944;2023-05-21T08:06:41;21.10;99.90
26037;DHT22;13810;48.376;10.944;2023-05-21T08:07:11;21.10;99.90
26037;DHT22;13810;48.376;10.944;2023-05-21T08:07:43;21.20;99.90
26037;DHT22;13810;48.376;10.944;2023-05-21T08:08:18;21.10;99.90
26037;DHT22;13810;48.376;10.944;2023-05-21T08:08:49;21.10;99.90
26037;DHT22;13810;48.376;10.944;2023-05-21T08:09:20;21.20;99.90
26037;DHT22;13810;48.376;10.944;2023-05-21T08:09:50;21.30;99.90
26037;DHT22;13810;48.376;10.944;2023-05-21T08:10:23;21.30;99.90
26037;DHT22;13810;48.376;10.944;2023-05-21T08:10:53;21.40;99.90
26037;DHT22;13810;48.376;10.944;2023-05-21T08:11:24;21.40;99.90
26037;DHT22;13810;48.376;10.944;2023-05-21T08:11:56;21.40;99.90
26037;DHT22;13810;48.376;10.944;2023-05-21T08:12:26;21.40;99.90
26037;DHT22;13810;48.376;10.944;2023-05-21T08:12:57;21.40;99.90
26037;DHT22;13810;48.376;10.944;2023-05-21T08:13:28;21.50;99.90
26037;DHT22;13810;48.376;10.944;2023-05-21T08:13:58;21.50;99.90
26037;DHT22;13810;48.376;10.944;2023-05-21T08:14:29;21.50;99.90
26037;DHT22;13810;48.376;10.944;2023-05-21T08:15:00;21.60;99.90
26037;DHT22;13810;48.376;10.944;2023-05-21T08:15:31;21.70;99.90
26037;DHT22;13810;48.376;10.944;2023-05-21T08:16:01;21.80;99.90
26037;DHT22;13810;48.376;10.944;2023-05-21T08:16:32;21.80;99.90
26037;DHT22;13810;48.376;10.944;2023-05-21T08:17:03;21.90;99.90
26037;DHT22;13810;48.376;10.944;2023-05-21T08:17:34;22.00;99.90
26037;DHT22;13810;48.376;10.944;2023-05-21T08:18:04;22.10;99.90
26037;DHT22;13810;48.376;10.944;2023-05-21T08:18:35;22.00;99.90
26037;DHT22;13810;48.376;10.944;2023-05-21T08:19:06;22.00;99.90
26037;DHT22;13810;48.376;10.944;2023-05-21T08:19:37;22.00;99.90
26037;DHT22;13810;48.376;10.944;2023-05-21T08:20:08;22.00;99.90
26037;DHT22;13810;48.376;10.944;2023-05-21T08:20:39;22.00;99.90
26037;DHT22;13810;48.376;10.944;2023-05-21T08:21:10;22.10;99.90
26037;DHT22;13810;48.376;10.944;2023-05-21T08:21:41;22.10;99.90
26037;DHT22;13810;48.376;10.944;2023-05-21T08:22:12;22.10;99.90
26037;DHT22;13810;48.376;10.944;2023-05-21T08:22:43;22.10;99.90
26037;DHT22;13810;48.376;10.944;2023-05-21T08:23:13;22.10;99.90
26037;DHT22;13810;48.376;10.944;2023-05-21T08:23:44;22.10;99.90
26037;DHT22;13810;48.376;10.944;2023-05-21T08:24:15;22.00;99.90
26037;DHT22;13810;48.376;10.944;2023-05-21T08:24:46;22.10;99.90
26037;DHT22;13810;48.376;10.944;2023-05-21T08:25:18;22.10;99.90
26037;DHT22;13810;48.376;10.944;2023-05-21T08:25:48;22.00;99.90
26037;DHT22;13810;48.376;10.944;2023-05-21T08:26:19;22.00;99.90
26037;DHT22;13810;48.376;10.944;2023-05-21T08:26:50;22.00;99.90
26037;DHT22;13810;48.376;10.944;2023-05-21T08:27:21;22.00;99.90
26037;DHT22;13810;48.376;10.944;2023-05-21T08:27:52;22.00;99.90
26037;DHT22;13810;48.376;10.944;2023-05-21T08:28:22;22.10;99.90
26037;DHT22;13810;48.376;10.944;2023-05-21T08:28:53;22.10;99.90
26037;DHT22;13810;48.376;10.944;2023-05-21T08:29:24;22.20;99.90
26037;DHT22;13810;48.376;10.944;2023-05-21T08:29:55;22.20;99.90
26037;DHT22;13810;48.376;10.944;2023-05-21T08:30:26;22.30;99.90
26037;DHT22;13810;48.376;10.944;2023-05-21T08:30:56;22.40;99.90
26037;DHT22;13810;48.376;10.944;2023-05-21T08:31:27;22.50;99.90
26037;DHT22;13810;48.376;10.944;2023-05-21T08:31:58;22.60;99.90
26037;DHT22;13810;48.376;10.944;2023-05-21T08:32:29;22.60;99.90
26037;DHT22;13810;48.376;10.944;2023-05-21T08:32:59;22.70;99.90
26037;DHT22;13810;48.376;10.944;2023-05-21T08:33:30;22.60;99.90
26037;DHT22;13810;48.376;10.944;2023-05-21T08:34:01;22.60;99.90
26037;DHT22;13810;48.376;10.944;2023-05-21T08:34:31;22.70;99.90
26037;DHT22;13810;48.376;10.944;2023-05-21T08:35:02;22.70;99.90
26037;DHT22;13810;48.376;10.944;2023-05-21T08:35:33;22.70;99.90
26037;DHT22;13810;48.376;10.944;2023-05-21T08:36:05;22.70;99.90
26037;DHT22;13810;48.376;10.944;2023-05-21T08:36:36;22.70;99.90
26037;DHT22;13810;48.376;10.944;2023-05-21T08:37:07;22.70;99.90
26037;DHT22;13810;48.376;10.944;2023-05-21T08:37:38;22.70;99.90
26037;DHT22;13810;48.376;10.944;2023-05-21T08:38:08;22.70;99.90
26037;DHT22;13810;48.376;10.944;2023-05-21T08:38:39;22.70;99.90
26037;DHT22;13810;48.376;10.944;2023-05-21T08:39:10;22.70;99.90
26037;DHT22;13810;48.376;10.944;2023-05-21T08:39:42;22.80;99.90
26037;DHT22;13810;48.376;10.944;2023-05-21T08:40:12;22.80;99.90
26037;DHT22;13810;48.376;10.944;2023-05-21T08:40:45;22.90;99.90
26037;DHT22;13810;48.376;10.944;2023-05-21T08:41:17;22.90;99.90
26037;DHT22;13810;48.376;10.944;2023-05-21T08:41:51;23.00;99.90
26037;DHT22;13810;48.376;10.944;2023-05-21T08:42:39;23.10;99.90
26037;DHT22;13810;48.376;10.944;2023-05-21T08:43:12;23.10;99.90
26037;DHT22;13810;48.376;10.944;2023-05-21T08:43:45;23.10;99.90
26037;DHT22;13810;48.376;10.944;2023-05-21T08:44:19;23.10;99.90
26037;DHT22;13810;48.376;10.944;2023-05-21T08:44:54;23.10;99.90
26037;DHT22;13810;48.376;10.944;2023-05-21T08:45:33;23.10;99.90
26037;DHT22;13810;48.376;10.944;2023-05-21T08:46:07;23.10;99.90
26037;DHT22;13810;48.376;10.944;2023-05-21T08:46:40;23.10;99.90
26037;DHT22;13810;48.376;10.944;2023-05-21T08:47:15;23.10;99.90
26037;DHT22;13810;48.376;10.944;2023-05-21T08:47:54;23.20;99.90
26037;DHT22;13810;48.376;10.944;2023-05-21T08:48:25;23.30;99.90
26037;DHT22;13810;48.376;10.944;2023-05-21T08:48:58;23.40;99.90
26037;DHT22;13810;48.376;10.944;2023-05-21T08:49:29;23.40;99.90
26037;DHT22;13810;48.376;10.944;2023-05-21T08:50:04;23.40;99.90
26037;DHT22;13810;48.376;10.944;2023-05-21T08:50:37;23.40;99.90
26037;DHT22;13810;48.376;10.944;2023-05-21T08:51:07;23.30;99.90
26037;DHT22;13810;48.376;10.944;2023-05-21T08:51:38;23.30;99.90
26037;DHT22;13810;48.376;10.944;2023-05-21T08:52:09;23.40;99.90
26037;DHT22;13810;48.376;10.944;2023-05-21T08:52:40;23.40;99.90
26037;DHT22;13810;48.376;10.944;2023-05-21T08:53:11;23.50;99.90
26037;DHT22;13810;48.376;10.944;2023-05-21T08:53:42;23.70;99.90
26037;DHT22;13810;48.376;10.944;2023-05-21T08:54:15;23.70;99.90
26037;DHT22;13810;48.376;10.944;2023-05-21T08:54:46;23.90;99.90
26037;DHT22;13810;48.376;10.944;2023-05-21T08:55:17;23.90;99.90
26037;DHT22;13810;48.376;10.944;2023-05-21T08:55:51;23.80;99.70
26037;DHT22;13810;48.376;10.944;2023-05-21T08:56:22;23.80;99.90
26037;DHT22;13810;48.376;10.944;2023-05-21T08:56:54;23.90;99.90
26037;DHT22;13810;48.376;10.944;2023-05-21T08:57:26;23.80;99.80
26037;DHT22;13810;48.376;10.944;2023-05-21T08:57:56;23.90;99.90
26037;DHT22;13810;48.376;10.944;2023-05-21T08:58:28;24.00;99.90
26037;DHT22;13810;48.376;10.944;2023-05-21T08:59:01;23.90;99.90
26037;DHT22;13810;48.376;10.944;2023-05-21T08:59:32;23.90;99.80
26037;DHT22;13810;48.376;10.944;2023-05-21T09:00:03;24.00;99.90
26037;DHT22;13810;48.376;10.944;2023-05-21T09:00:36;24.00;99.50
26037;DHT22;13810;48.376;10.944;2023-05-21T09:01:07;24.10;99.90
26037;DHT22;13810;48.376;10.944;2023-05-21T09:01:39;24.20;99.90
26037;DHT22;13810;48.376;10.944;2023-05-21T09:02:12;24.30;99.90
26037;DHT22;13810;48.376;10.944;2023-05-21T09:02:43;24.30;99.70
26037;DHT22;13810;48.376;10.944;2023-05-21T09:03:15;24.30;99.10
26037;DHT22;13810;48.376;10.944;2023-05-21T09:03:47;24.50;99.00
26037;DHT22;13810;48.376;10.944;2023-05-21T09:04:19;24.60;99.50
26037;DHT22;13810;48.376;10.944;2023-05-21T09:04:52;24.70;99.10
26037;DHT22;13810;48.376;10.944;2023-05-21T09:05:27;24.80;99.30
26037;DHT22;13810;48.376;10.944;2023-05-21T09:05:59;24.70;99.00
26037;DHT22;13810;48.376;10.944;2023-05-21T09:06:30;24.70;99.10
26037;DHT22;13810;48.376;10.944;2023-05-21T09:07:03;24.80;98.50
26037;DHT22;13810;48.376;10.944;2023-05-21T09:07:41;24.90;98.40
26037;DHT22;13810;48.376;10.944;2023-05-21T09:08:31;25.00;98.10
26037;DHT22;13810;48.376;10.944;2023-05-21T09:09:13;25.30;99.40
26037;DHT22;13810;48.376;10.944;2023-05-21T09:09:48;25.30;99.80
26037;DHT22;13810;48.376;10.944;2023-05-21T09:10:28;25.40;98.90
26037;DHT22;13810;48.376;10.944;2023-05-21T09:11:01;25.40;97.70